Terminal Aerodrome Forecast
Issued by NWS Wilmington, OH

Current Version | Previous Version | Text Only | Print | Product List | Glossary Off
Versions: 1 2 3 4 5 6 7 8 9 10 11

868
FTUS41 KILN 221632 AAD
TAFILN
TAF AMD
KILN 221632Z 2217/2312 05012G20KT P6SM BKN025
     FM221800 04012G18KT P6SM OVC050
     FM230600 05009KT P6SM BKN150=

USA.gov is the U.S. government's official web portal to all federal, state and local government web resources and services.